Terminal Aerodrome Forecast
Issued by NWS

Home | Current Version | Previous Version | Text Only | Print | Product List | Glossary On
Versions: 1 2 3 4 5 6 7 8 9 10 11 12 13 14 15
000
FTUS45 KVEF 011723
TAFEED
TAF
KEED 011723Z 0118/0218 07006KT P6SM VCTS SCT100CB BKN150
     FM020100 VRB06KT P6SM FEW100 BKN150
     FM021200 36008KT P6SM FEW150=

USA.gov is the U.S. government's official web portal to all federal, state and local government web resources and services.